createdAt,value
2023-06-17T00:00:09.904Z,20.83
2023-06-17T00:02:38.002Z,19.60
2023-06-17T00:05:07.212Z,20.00
2023-06-17T00:07:35.359Z,19.23
2023-06-17T00:10:03.602Z,20.07
2023-06-17T00:12:33.073Z,19.10
2023-06-17T00:15:02.776Z,18.53
2023-06-17T00:17:33.430Z,18.70
2023-06-17T00:20:09.155Z,20.20
2023-06-17T00:22:37.670Z,18.43
2023-06-17T00:25:07.109Z,18.93
2023-06-17T00:27:35.273Z,17.60
2023-06-17T00:30:03.335Z,17.73
2023-06-17T00:32:32.760Z,18.03
2023-06-17T00:35:00.905Z,17.03
2023-06-17T00:37:29.022Z,18.30
2023-06-17T00:39:57.081Z,17.03
2023-06-17T00:42:25.117Z,18.77
2023-06-17T00:44:53.661Z,18.07
2023-06-17T00:47:22.322Z,17.73
2023-06-17T00:49:54.502Z,16.83
2023-06-17T00:52:40.370Z,17.13
2023-06-17T00:55:11.001Z,15.87
2023-06-17T00:57:39.663Z,17.13
2023-06-17T01:00:12.052Z,17.47
2023-06-17T01:02:42.296Z,17.10
2023-06-17T01:05:14.099Z,16.50
2023-06-17T01:07:59.058Z,17.13
2023-06-17T01:10:35.314Z,17.37
2023-06-17T01:13:04.820Z,18.73
2023-06-17T01:15:34.305Z,18.27
2023-06-17T01:18:05.337Z,18.53
2023-06-17T01:20:36.966Z,19.20
2023-06-17T01:23:06.462Z,19.37
2023-06-17T01:25:36.578Z,18.50
2023-06-17T01:28:17.914Z,18.10
2023-06-17T01:30:46.370Z,17.20
2023-06-17T01:33:15.745Z,16.20
2023-06-17T01:35:51.316Z,16.17
2023-06-17T01:38:25.337Z,16.80
2023-06-17T01:40:59.957Z,16.87
2023-06-17T01:43:29.683Z,16.23
2023-06-17T01:45:59.254Z,15.57
2023-06-17T01:48:27.642Z,15.43
2023-06-17T01:50:56.227Z,15.63
2023-06-17T01:53:25.986Z,14.87
2023-06-17T01:55:56.009Z,15.53
2023-06-17T01:58:24.560Z,15.23
2023-06-17T02:00:52.786Z,14.73
2023-06-17T02:03:21.037Z,13.83
2023-06-17T02:05:51.739Z,13.50
2023-06-17T02:08:19.838Z,11.57
2023-06-17T02:10:47.904Z,11.80
2023-06-17T02:13:17.300Z,10.87
2023-06-17T02:15:46.082Z,11.00
2023-06-17T02:18:15.209Z,11.40
2023-06-17T02:20:46.485Z,11.57
2023-06-17T02:23:14.589Z,11.67
2023-06-17T02:25:42.818Z,11.13
2023-06-17T02:28:10.983Z,12.20
2023-06-17T02:30:40.697Z,11.63
2023-06-17T02:33:09.233Z,12.23
2023-06-17T02:35:37.231Z,12.27
2023-06-17T02:38:06.489Z,13.27
2023-06-17T02:40:34.591Z,12.47
2023-06-17T02:43:02.653Z,13.70
2023-06-17T02:45:30.801Z,11.87
2023-06-17T02:48:00.546Z,12.67
2023-06-17T02:50:28.792Z,11.27
2023-06-17T02:52:57.627Z,12.27
2023-06-17T02:55:29.138Z,11.97
2023-06-17T02:57:59.443Z,11.80
2023-06-17T03:00:33.895Z,11.70
2023-06-17T03:03:03.462Z,11.70
2023-06-17T03:05:31.755Z,11.20
2023-06-17T03:08:00.954Z,11.73
2023-06-17T03:10:29.088Z,11.43
2023-06-17T03:13:05.906Z,12.33
2023-06-17T03:15:35.014Z,11.47
2023-06-17T03:18:05.309Z,12.73
2023-06-17T03:20:34.415Z,12.83
2023-06-17T03:23:03.804Z,14.03
2023-06-17T03:25:32.755Z,14.80
2023-06-17T03:28:03.015Z,14.57
2023-06-17T03:30:31.678Z,14.90
2023-06-17T03:32:59.988Z,14.67
2023-06-17T03:35:29.427Z,14.13
2023-06-17T03:37:57.708Z,15.07
2023-06-17T03:40:27.100Z,14.90
2023-06-17T03:42:55.814Z,15.53
2023-06-17T03:45:24.509Z,16.23
2023-06-17T03:47:57.002Z,15.30
2023-06-17T03:50:25.224Z,15.70
2023-06-17T03:52:55.829Z,15.53
2023-06-17T03:55:24.684Z,15.63
2023-06-17T03:57:54.595Z,15.87
2023-06-17T04:00:23.712Z,15.97
2023-06-17T04:02:52.183Z,16.50
2023-06-17T04:05:33.995Z,17.97
2023-06-17T04:08:05.058Z,16.67
2023-06-17T04:10:35.461Z,17.47
2023-06-17T04:13:03.539Z,16.87
2023-06-17T04:15:31.610Z,16.20
2023-06-17T04:18:03.278Z,15.07
2023-06-17T04:20:35.665Z,15.80
2023-06-17T04:23:05.410Z,15.83
2023-06-17T04:25:37.823Z,15.23
2023-06-17T04:28:08.466Z,15.37
2023-06-17T04:30:38.928Z,15.57
2023-06-17T04:33:07.562Z,14.97
2023-06-17T04:35:36.501Z,15.03
2023-06-17T04:38:07.039Z,15.23
2023-06-17T04:40:37.854Z,15.10
2023-06-17T04:43:06.982Z,14.97
2023-06-17T04:45:36.356Z,15.13
2023-06-17T04:48:07.396Z,15.13
2023-06-17T04:50:36.688Z,15.63
2023-06-17T04:53:06.328Z,14.23
2023-06-17T04:55:39.368Z,14.10
2023-06-17T04:58:10.571Z,12.47
2023-06-17T05:00:50.270Z,12.70
2023-06-17T05:03:24.771Z,12.77
2023-06-17T05:05:54.758Z,13.10
2023-06-17T05:08:25.891Z,12.43
2023-06-17T05:10:54.312Z,12.90
2023-06-17T05:13:24.002Z,11.77
2023-06-17T05:15:54.012Z,11.27
2023-06-17T05:18:22.528Z,11.30
2023-06-17T05:20:51.911Z,11.23
2023-06-17T05:23:20.794Z,11.17
2023-06-17T05:25:50.280Z,10.97
2023-06-17T05:28:19.351Z,11.13
2023-06-17T05:30:47.759Z,11.43
2023-06-17T05:33:18.413Z,10.77
2023-06-17T05:35:46.760Z,10.20
2023-06-17T05:38:14.826Z,9.80
2023-06-17T05:40:42.858Z,10.40
2023-06-17T05:43:12.749Z,10.90
2023-06-17T05:45:43.495Z,10.53
2023-06-17T05:48:12.812Z,12.03
2023-06-17T05:50:41.060Z,11.60
2023-06-17T05:53:09.568Z,10.90
2023-06-17T05:55:37.598Z,11.27
2023-06-17T05:58:05.775Z,11.30
2023-06-17T06:00:37.872Z,11.30
2023-06-17T06:03:05.978Z,12.47
2023-06-17T06:05:34.739Z,11.27
2023-06-17T06:08:02.760Z,11.57
2023-06-17T06:10:30.920Z,11.77
2023-06-17T06:13:02.190Z,11.10
2023-06-17T06:15:31.773Z,10.87
2023-06-17T06:18:01.304Z,10.53
2023-06-17T06:20:30.454Z,10.63
2023-06-17T06:22:59.564Z,11.20
2023-06-17T06:25:29.214Z,9.97
2023-06-17T06:27:59.593Z,10.63
2023-06-17T06:30:29.682Z,9.30
2023-06-17T06:32:57.963Z,8.70
2023-06-17T06:35:28.170Z,7.80
2023-06-17T06:37:56.574Z,7.23
2023-06-17T06:40:25.158Z,6.70
2023-06-17T06:42:53.291Z,6.03
2023-06-17T06:45:28.978Z,6.40
2023-06-17T06:47:57.289Z,6.47
2023-06-17T06:50:27.211Z,7.30
2023-06-17T06:52:55.565Z,7.10
2023-06-17T06:55:27.456Z,6.60
2023-06-17T06:57:56.916Z,6.47
2023-06-17T07:00:25.923Z,6.70
2023-06-17T07:02:54.259Z,6.37
2023-06-17T07:05:23.378Z,6.80
2023-06-17T07:07:57.100Z,6.40
2023-06-17T07:10:25.658Z,6.67
2023-06-17T07:12:53.774Z,6.57
2023-06-17T07:15:21.866Z,6.30
2023-06-17T07:17:51.751Z,6.10
2023-06-17T07:20:20.325Z,5.90
2023-06-17T07:22:49.622Z,6.47
2023-06-17T07:25:20.064Z,6.43
2023-06-17T07:27:48.183Z,6.70
2023-06-17T07:30:17.315Z,6.77
2023-06-17T07:32:45.579Z,6.40
2023-06-17T07:35:13.779Z,6.47
2023-06-17T07:37:42.316Z,6.57
2023-06-17T07:40:14.127Z,6.50
2023-06-17T07:42:44.051Z,6.20
2023-06-17T07:45:13.153Z,6.07
2023-06-17T07:47:41.394Z,6.40
2023-06-17T07:50:10.599Z,6.40
2023-06-17T07:52:38.924Z,5.97
2023-06-17T07:55:09.488Z,6.20
2023-06-17T07:57:37.855Z,6.40
2023-06-17T08:00:11.164Z,6.07
2023-06-17T08:02:45.411Z,5.70
2023-06-17T08:05:13.658Z,6.13
2023-06-17T08:07:41.721Z,5.77
2023-06-17T08:10:10.673Z,6.20
2023-06-17T08:12:38.952Z,5.47
2023-06-17T08:15:10.185Z,5.30
2023-06-17T08:17:38.410Z,5.70
2023-06-17T08:20:07.627Z,5.20
2023-06-17T08:22:37.137Z,5.37
2023-06-17T08:25:05.885Z,4.70
2023-06-17T08:27:34.316Z,4.90
2023-06-17T08:30:02.569Z,4.67
2023-06-17T08:32:39.316Z,4.60
2023-06-17T08:35:09.237Z,5.13
2023-06-17T08:37:37.471Z,4.80
2023-06-17T08:40:06.705Z,5.17
2023-06-17T08:42:34.945Z,4.63
2023-06-17T08:45:03.836Z,4.80
2023-06-17T08:47:34.337Z,5.03
2023-06-17T08:50:03.850Z,4.77
2023-06-17T08:52:35.825Z,5.13
2023-06-17T08:55:04.386Z,5.00
2023-06-17T08:57:32.901Z,5.57
2023-06-17T09:00:01.036Z,5.20
2023-06-17T09:02:30.595Z,4.93
2023-06-17T09:05:00.076Z,4.97
2023-06-17T09:07:28.803Z,5.60
2023-06-17T09:09:57.323Z,5.00
2023-06-17T09:12:26.759Z,4.93
2023-06-17T09:14:56.356Z,4.80
2023-06-17T09:17:31.020Z,5.20
2023-06-17T09:20:11.368Z,5.10
2023-06-17T09:22:43.843Z,4.90
2023-06-17T09:25:14.748Z,4.90
2023-06-17T09:27:58.421Z,5.32
2023-06-17T09:30:43.138Z,4.63
2023-06-17T09:33:19.391Z,4.93
2023-06-17T09:35:49.297Z,4.80
2023-06-17T09:38:19.431Z,4.93
2023-06-17T09:40:50.797Z,4.75
2023-06-17T09:43:27.080Z,4.65
2023-06-17T09:45:57.140Z,4.80
2023-06-17T09:48:30.946Z,4.90
2023-06-17T09:51:01.836Z,5.30
2023-06-17T09:53:31.727Z,4.35
2023-06-17T09:56:01.756Z,4.45
2023-06-17T09:58:31.632Z,4.97
2023-06-17T10:01:01.668Z,4.63
2023-06-17T10:03:30.317Z,5.18
2023-06-17T10:06:04.146Z,5.32
2023-06-17T10:08:33.694Z,5.47
2023-06-17T10:11:02.245Z,5.82
2023-06-17T10:13:33.749Z,6.10
2023-06-17T10:16:03.532Z,6.15
2023-06-17T10:18:32.792Z,5.90
2023-06-17T10:21:03.591Z,6.22
2023-06-17T10:23:33.487Z,5.83
2023-06-17T10:26:01.672Z,6.90
2023-06-17T10:28:45.778Z,6.63
2023-06-17T10:31:27.427Z,6.50
2023-06-17T10:33:56.740Z,6.97
2023-06-17T10:36:28.102Z,6.73
2023-06-17T10:38:57.950Z,6.63
2023-06-17T10:41:53.202Z,7.20
2023-06-17T10:44:42.540Z,7.25
2023-06-17T10:47:24.229Z,7.07
2023-06-17T10:49:55.021Z,6.32
2023-06-17T10:52:24.953Z,7.40
2023-06-17T10:54:54.375Z,6.65
2023-06-17T10:57:35.671Z,7.25
2023-06-17T11:00:09.694Z,7.17
2023-06-17T11:02:38.773Z,6.83
2023-06-17T11:05:08.036Z,6.22
2023-06-17T11:07:38.429Z,6.30
2023-06-17T11:10:07.559Z,6.40
2023-06-17T11:12:37.014Z,6.90
2023-06-17T11:15:07.969Z,6.10
2023-06-17T11:17:36.143Z,6.68
2023-06-17T11:20:06.905Z,5.60
2023-06-17T11:22:40.185Z,5.32
2023-06-17T11:25:11.155Z,5.55
2023-06-17T11:27:41.627Z,5.00
2023-06-17T11:30:10.843Z,5.13
2023-06-17T11:32:40.767Z,5.25
2023-06-17T11:35:10.651Z,5.22
2023-06-17T11:37:41.014Z,4.95
2023-06-17T11:40:13.003Z,4.72
2023-06-17T11:42:41.773Z,4.65
2023-06-17T11:45:11.016Z,4.72
2023-06-17T11:47:39.206Z,4.90
2023-06-17T11:50:08.325Z,4.78
2023-06-17T11:52:36.919Z,4.60
2023-06-17T11:55:06.923Z,4.70
2023-06-17T11:57:35.103Z,4.53
2023-06-17T12:00:11.012Z,4.60
2023-06-17T12:02:42.307Z,5.05
2023-06-17T12:05:11.694Z,5.07
2023-06-17T12:07:40.904Z,5.20
2023-06-17T12:10:13.725Z,5.20
2023-06-17T12:12:42.211Z,5.07
2023-06-17T12:17:43.183Z,7.80
2023-06-17T12:20:16.136Z,6.78
2023-06-17T12:22:44.674Z,4.22
2023-06-17T12:25:14.349Z,4.03
2023-06-17T12:27:43.866Z,4.65
2023-06-17T12:30:13.147Z,4.72
2023-06-17T12:32:44.750Z,4.40
2023-06-17T12:35:16.011Z,5.40
2023-06-17T12:37:45.056Z,4.80
2023-06-17T12:40:14.857Z,4.57
2023-06-17T12:42:43.599Z,3.78
2023-06-17T12:45:14.181Z,3.80
2023-06-17T12:47:43.215Z,3.97
2023-06-17T12:50:12.357Z,4.22
2023-06-17T12:52:40.637Z,4.68
2023-06-17T12:55:10.017Z,4.38
2023-06-17T12:57:39.570Z,5.15
2023-06-17T13:00:09.058Z,4.28
2023-06-17T13:02:38.919Z,4.43
2023-06-17T13:05:08.487Z,4.50
2023-06-17T13:07:36.709Z,4.55
2023-06-17T13:10:06.748Z,4.53
2023-06-17T13:12:34.870Z,3.92
2023-06-17T13:15:05.364Z,4.45
2023-06-17T13:17:33.772Z,4.07
2023-06-17T13:20:02.594Z,4.30
2023-06-17T13:22:32.353Z,3.95
2023-06-17T13:25:01.238Z,4.50
2023-06-17T13:27:29.709Z,4.20
2023-06-17T13:29:59.930Z,4.28
2023-06-17T13:32:29.450Z,4.35
2023-06-17T13:34:57.653Z,4.60
2023-06-17T13:37:25.744Z,4.32
2023-06-17T13:39:53.882Z,4.53
2023-06-17T13:42:22.411Z,4.40
2023-06-17T13:44:50.538Z,4.43
2023-06-17T13:47:18.802Z,3.65
2023-06-17T13:49:48.207Z,4.10
2023-06-17T13:52:17.445Z,4.38
2023-06-17T13:54:45.669Z,3.90
2023-06-17T13:57:15.953Z,4.60
2023-06-17T13:59:44.255Z,4.40
2023-06-17T14:02:12.575Z,4.05
2023-06-17T14:04:41.138Z,4.50
2023-06-17T14:07:10.644Z,4.50
2023-06-17T14:09:38.902Z,4.15
2023-06-17T14:12:08.862Z,4.53
2023-06-17T14:14:37.092Z,4.22
2023-06-17T14:17:05.576Z,5.75
2023-06-17T14:19:34.912Z,4.80
2023-06-17T14:22:06.815Z,3.95
2023-06-17T14:24:39.002Z,4.50
2023-06-17T14:27:36.684Z,4.68
2023-06-17T14:30:05.559Z,4.60
2023-06-17T14:32:33.699Z,4.53
2023-06-17T14:35:01.959Z,4.70
2023-06-17T14:37:30.748Z,4.43
2023-06-17T14:40:00.406Z,4.65
2023-06-17T14:42:28.798Z,4.65
2023-06-17T14:44:56.902Z,4.40
2023-06-17T14:47:25.237Z,4.32
2023-06-17T14:49:53.600Z,4.45
2023-06-17T14:52:21.998Z,4.78
2023-06-17T14:54:50.105Z,5.18
2023-06-17T14:57:19.516Z,5.30
2023-06-17T14:59:48.640Z,5.05
2023-06-17T15:02:57.368Z,4.55
2023-06-17T15:05:27.693Z,4.70
2023-06-17T15:07:56.194Z,5.43
2023-06-17T15:10:24.739Z,5.72
2023-06-17T15:12:54.355Z,5.20
2023-06-17T15:15:22.661Z,5.55
2023-06-17T15:17:50.897Z,5.93
2023-06-17T15:20:20.776Z,5.93
2023-06-17T15:22:49.272Z,5.63
2023-06-17T15:25:17.494Z,6.32
2023-06-17T15:27:45.602Z,5.72
2023-06-17T15:30:15.414Z,6.28
2023-06-17T15:32:43.507Z,5.60
2023-06-17T15:35:11.716Z,5.75
2023-06-17T15:37:39.764Z,5.32
2023-06-17T15:40:09.132Z,5.30
2023-06-17T15:42:38.187Z,5.60
2023-06-17T15:45:07.557Z,5.15
2023-06-17T15:47:37.007Z,5.05
2023-06-17T15:50:05.453Z,5.13
2023-06-17T15:52:33.528Z,5.18
2023-06-17T15:55:02.533Z,5.72
2023-06-17T15:57:30.580Z,6.05
2023-06-17T15:59:58.922Z,5.35
2023-06-17T16:02:27.816Z,5.35
2023-06-17T16:04:57.210Z,5.53
2023-06-17T16:07:25.352Z,5.60
2023-06-17T16:09:53.778Z,5.65
2023-06-17T16:12:23.354Z,5.70
2023-06-17T16:14:51.516Z,5.72
2023-06-17T16:17:20.086Z,5.75
2023-06-17T16:19:48.494Z,6.00
2023-06-17T16:22:17.925Z,5.78
2023-06-17T16:24:46.167Z,5.55
2023-06-17T16:27:14.224Z,5.97
2023-06-17T16:29:42.405Z,6.03
2023-06-17T16:32:11.246Z,5.60
2023-06-17T16:34:39.632Z,6.05
2023-06-17T16:37:07.793Z,5.50
2023-06-17T16:39:37.273Z,6.15
2023-06-17T16:42:07.478Z,5.50
2023-06-17T16:44:36.676Z,5.45
2023-06-17T16:47:05.242Z,5.70
2023-06-17T16:49:33.345Z,6.25
2023-06-17T16:52:01.906Z,5.85
2023-06-17T16:54:29.982Z,5.80
2023-06-17T16:56:59.412Z,5.70
2023-06-17T16:59:27.508Z,5.95
2023-06-17T17:01:56.417Z,5.53
2023-06-17T17:04:24.603Z,5.95
2023-06-17T17:06:52.622Z,5.78
2023-06-17T17:09:20.936Z,6.15
2023-06-17T17:11:49.003Z,5.72
2023-06-17T17:14:20.416Z,5.53
2023-06-17T17:16:48.602Z,6.07
2023-06-17T17:19:16.705Z,5.90
2023-06-17T17:21:46.397Z,6.05
2023-06-17T17:24:14.558Z,6.28
2023-06-17T17:26:42.640Z,5.63
2023-06-17T17:29:11.463Z,5.35
2023-06-17T17:31:41.047Z,5.50
2023-06-17T17:34:11.475Z,6.00
2023-06-17T17:36:39.574Z,5.80
2023-06-17T17:39:08.029Z,6.00
2023-06-17T17:41:38.942Z,6.05
2023-06-17T17:44:08.853Z,5.68
2023-06-17T17:46:38.899Z,6.28
2023-06-17T17:49:09.768Z,6.30
2023-06-17T17:51:37.891Z,6.35
2023-06-17T17:54:06.045Z,6.25
2023-06-17T17:56:34.292Z,6.10
2023-06-17T17:59:02.371Z,6.35
2023-06-17T18:01:30.454Z,6.22
2023-06-17T18:03:58.770Z,6.80
2023-06-17T18:06:30.378Z,6.60
2023-06-17T18:08:58.660Z,6.38
2023-06-17T18:11:27.437Z,6.53
2023-06-17T18:13:55.483Z,5.95
2023-06-17T18:16:23.996Z,6.30
2023-06-17T18:18:52.337Z,6.88
2023-06-17T18:21:20.666Z,6.72
2023-06-17T18:23:50.220Z,7.18
2023-06-17T18:26:18.397Z,6.72
2023-06-17T18:28:46.544Z,6.93
2023-06-17T18:31:14.780Z,6.93
2023-06-17T18:33:43.033Z,7.05
2023-06-17T18:36:11.157Z,6.85
2023-06-17T18:38:39.228Z,6.70
2023-06-17T18:41:08.787Z,7.18
2023-06-17T18:43:36.808Z,6.70
2023-06-17T18:46:05.034Z,6.50
2023-06-17T18:48:33.358Z,6.70
2023-06-17T18:51:01.425Z,6.82
2023-06-17T18:53:29.470Z,7.28
2023-06-17T18:55:58.291Z,6.60
2023-06-17T18:58:27.839Z,7.55
2023-06-17T19:00:55.997Z,7.00
2023-06-17T19:03:24.120Z,7.30
2023-06-17T19:05:52.919Z,7.13
2023-06-17T19:08:21.133Z,7.30
2023-06-17T19:10:49.360Z,7.80
2023-06-17T19:13:17.711Z,8.40
2023-06-17T19:15:47.374Z,7.60
2023-06-17T19:18:15.530Z,7.97
2023-06-17T19:20:44.993Z,7.40
2023-06-17T19:23:13.175Z,7.90
2023-06-17T19:25:41.478Z,8.20
2023-06-17T19:28:12.890Z,8.20
2023-06-17T19:30:45.071Z,8.50
2023-06-17T19:33:14.532Z,9.00
2023-06-17T19:35:43.700Z,8.93
2023-06-17T19:38:12.026Z,8.47
2023-06-17T19:40:40.185Z,9.67
2023-06-17T19:43:08.220Z,9.33
2023-06-17T19:45:37.259Z,8.23
2023-06-17T19:48:05.967Z,8.97
2023-06-17T19:50:35.803Z,8.73
2023-06-17T19:53:04.017Z,8.90
2023-06-17T19:55:32.365Z,8.50
2023-06-17T19:58:00.492Z,8.67
2023-06-17T20:00:28.909Z,9.40
2023-06-17T20:02:57.419Z,8.90
2023-06-17T20:05:25.599Z,9.13
2023-06-17T20:07:55.184Z,9.00
2023-06-17T20:10:23.729Z,9.30
2023-06-17T20:12:53.732Z,8.90
2023-06-17T20:15:21.917Z,9.60
2023-06-17T20:17:50.072Z,9.60
2023-06-17T20:20:18.209Z,9.37
2023-06-17T20:22:46.604Z,9.10
2023-06-17T20:25:16.178Z,9.50
2023-06-17T20:27:45.415Z,9.17
2023-06-17T20:30:14.542Z,9.93
2023-06-17T20:32:42.877Z,9.93
2023-06-17T20:35:11.200Z,10.87
2023-06-17T20:37:39.287Z,11.43
2023-06-17T20:40:08.950Z,11.17
2023-06-17T20:42:38.684Z,14.90
2023-06-17T20:45:09.194Z,13.87
2023-06-17T20:47:37.414Z,14.60
2023-06-17T20:50:06.113Z,13.70
2023-06-17T20:52:34.226Z,13.20
2023-06-17T20:55:02.328Z,12.80
2023-06-17T20:57:30.542Z,12.13
2023-06-17T21:00:00.054Z,12.93
2023-06-17T21:02:28.243Z,12.37
2023-06-17T21:04:57.002Z,12.13
2023-06-17T21:07:25.843Z,11.63
2023-06-17T21:09:54.467Z,12.27
2023-06-17T21:12:22.545Z,12.50
2023-06-17T21:14:50.664Z,13.77
2023-06-17T21:17:20.223Z,13.27
2023-06-17T21:19:48.327Z,12.83
2023-06-17T21:22:16.501Z,14.43
2023-06-17T21:24:44.546Z,14.13
2023-06-17T21:27:12.631Z,14.33
2023-06-17T21:29:41.315Z,13.63
2023-06-17T21:32:11.312Z,13.70
2023-06-17T21:34:40.763Z,14.00
2023-06-17T21:37:08.853Z,13.80
2023-06-17T21:39:36.883Z,13.70
2023-06-17T21:42:06.557Z,13.97
2023-06-17T21:44:34.909Z,13.67
2023-06-17T21:47:03.024Z,13.23
2023-06-17T21:49:31.067Z,13.00
2023-06-17T21:52:00.700Z,13.00
2023-06-17T21:54:28.830Z,13.00
2023-06-17T21:56:56.921Z,13.50
2023-06-17T21:59:25.006Z,13.03
2023-06-17T22:01:53.139Z,12.90
2023-06-17T22:04:21.571Z,12.23
2023-06-17T22:06:49.775Z,13.53
2023-06-17T22:09:19.157Z,12.33
2023-06-17T22:11:47.343Z,13.13
2023-06-17T22:14:15.589Z,12.73
2023-06-17T22:16:43.733Z,13.17
2023-06-17T22:19:11.738Z,11.83
2023-06-17T22:21:39.729Z,13.87
2023-06-17T22:24:08.076Z,14.40
2023-06-17T22:26:37.968Z,14.07
2023-06-17T22:29:06.101Z,15.93
2023-06-17T22:31:34.175Z,14.67
2023-06-17T22:34:02.199Z,15.83
2023-06-17T22:36:30.316Z,16.50
2023-06-17T22:38:58.320Z,15.20
2023-06-17T22:41:26.551Z,14.23
2023-06-17T22:43:55.979Z,14.30
2023-06-17T22:46:24.264Z,14.07
2023-06-17T22:48:52.337Z,14.87
2023-06-17T22:51:20.971Z,15.00
2023-06-17T22:53:49.670Z,13.93
2023-06-17T22:56:17.997Z,14.40
2023-06-17T22:58:46.262Z,15.00
2023-06-17T23:01:15.814Z,14.83
2023-06-17T23:03:43.873Z,14.40
2023-06-17T23:06:11.962Z,14.70
2023-06-17T23:08:40.063Z,15.40
2023-06-17T23:11:08.198Z,16.73
2023-06-17T23:13:36.264Z,15.67
2023-06-17T23:16:04.408Z,15.23
2023-06-17T23:18:33.816Z,15.90
2023-06-17T23:21:02.530Z,15.50
2023-06-17T23:23:30.663Z,15.67
2023-06-17T23:26:00.400Z,15.27
2023-06-17T23:28:28.406Z,15.20
2023-06-17T23:30:56.511Z,15.33
2023-06-17T23:33:24.560Z,16.10
2023-06-17T23:35:53.967Z,15.40
2023-06-17T23:38:22.019Z,16.53
2023-06-17T23:40:50.521Z,17.47
2023-06-17T23:43:18.584Z,16.90
2023-06-17T23:45:46.622Z,16.70
2023-06-17T23:48:14.850Z,16.90
2023-06-17T23:50:43.008Z,17.07
2023-06-17T23:53:12.847Z,17.07
2023-06-17T23:55:40.970Z,17.33
2023-06-17T23:58:09.034Z,16.67
